Time;durP1;ratioP1;P1;durP2;ratioP2;P2;SDS_P1;SDS_P2;PMS_P1;PMS_P2;Temp;Humidity;BMP_temperature;BMP_pressure;BME280_temperature;BME280_humidity;BME280_pressure;Samples;Min_cycle;Max_cycle;Signal;HPM_P1;HPM_P2
2022/05/24 00:01:25;;;;;;;8.10;7.50;;;;;;;;;;5239864;28;20051;-81
2022/05/24 00:03:56;;;;;;;8.27;7.50;;;;;;;;;;5240121;28;20017;-81
2022/05/24 00:06:29;;;;;;;15.43;9.43;;;;;;;;;;5240260;28;20043;-81
2022/05/24 00:08:59;;;;;;;9.55;8.65;;;;;;;;;;5238647;28;20024;-82
2022/05/24 00:11:29;;;;;;;15.45;7.10;;;;;;;;;;5239518;28;20021;-82
2022/05/24 00:14:00;;;;;;;10.48;8.50;;;;;;;;;;5238748;28;20556;-82
2022/05/24 00:16:30;;;;;;;10.73;7.88;;;;;;;;;;5238425;28;20418;-82
2022/05/24 00:19:01;;;;;;;9.85;8.98;;;;;;;;;;5240743;28;20028;-82
2022/05/24 00:21:31;;;;;;;8.88;6.90;;;;;;;;;;5242145;28;20021;-81
2022/05/24 00:24:01;;;;;;;8.77;7.88;;;;;;;;;;5248695;28;20089;-81
2022/05/24 00:26:32;;;;;;;10.52;6.47;;;;;;;;;;5242375;28;20013;-81
2022/05/24 00:29:02;;;;;;;7.22;6.38;;;;;;;;;;5239014;28;20021;-81
2022/05/24 00:31:32;;;;;;;6.05;5.68;;;;;;;;;;5239037;28;20017;-80
2022/05/24 00:34:03;;;;;;;6.70;6.22;;;;;;;;;;5236967;28;20493;-81
2022/05/24 00:36:33;;;;;;;18.27;6.33;;;;;;;;;;5239155;28;20025;-81
2022/05/24 00:39:04;;;;;;;12.88;6.43;;;;;;;;;;5238209;28;20276;-81
2022/05/24 00:41:41;;;;;;;8.38;5.05;;;;;;;;;;5238035;28;20017;-81
2022/05/24 00:44:21;;;;;;;7.43;5.97;;;;;;;;;;5238687;28;20474;-81
2022/05/24 00:47:08;;;;;;;6.78;6.18;;;;;;;;;;5238311;28;20024;-80
2022/05/24 00:49:41;;;;;;;10.70;5.70;;;;;;;;;;5237356;28;20013;-81
2022/05/24 00:52:25;;;;;;;15.85;6.80;;;;;;;;;;5236565;28;20032;-81
2022/05/24 00:54:55;;;;;;;15.35;6.60;;;;;;;;;;5237864;28;20044;-81
2022/05/24 00:57:26;;;;;;;5.45;5.13;;;;;;;;;;5237514;28;20021;-81
2022/05/24 01:00:29;;;;;;;7.60;6.55;;;;;;;;;;5241828;28;20048;-81
2022/05/24 01:02:59;;;;;;;8.25;5.50;;;;;;;;;;5231831;28;20049;-81
2022/05/24 01:05:30;;;;;;;6.95;5.97;;;;;;;;;;5237457;28;20108;-80
2022/05/24 01:08:00;;;;;;;9.57;5.55;;;;;;;;;;5237757;28;20597;-80
2022/05/24 01:10:31;;;;;;;8.80;6.38;;;;;;;;;;5237703;28;20045;-82
2022/05/24 01:13:07;;;;;;;5.28;4.88;;;;;;;;;;5237482;28;20394;-80
2022/05/24 01:15:38;;;;;;;4.82;4.55;;;;;;;;;;5236209;28;20077;-80
2022/05/24 01:18:09;;;;;;;6.60;5.97;;;;;;;;;;5237898;28;20434;-80
2022/05/24 01:20:42;;;;;;;4.45;4.05;;;;;;;;;;5237406;28;20029;-80
2022/05/24 01:23:27;;;;;;;5.63;5.20;;;;;;;;;;5237480;28;20513;-80
2022/05/24 01:26:01;;;;;;;8.50;6.13;;;;;;;;;;5235930;28;20017;-80
2022/05/24 01:28:34;;;;;;;5.78;5.40;;;;;;;;;;5236754;28;20009;-81
2022/05/24 01:31:05;;;;;;;7.55;4.82;;;;;;;;;;5236809;28;20020;-79
2022/05/24 01:36:25;;;;;;;5.25;4.80;;;;;;;;;;5236989;28;20025;-80
2022/05/24 01:38:58;;;;;;;7.22;4.25;;;;;;;;;;5236513;28;20020;-80
2022/05/24 01:41:30;;;;;;;5.47;5.18;;;;;;;;;;5234064;28;20036;-80
2022/05/24 01:44:01;;;;;;;4.85;4.45;;;;;;;;;;5235263;28;20096;-79
2022/05/24 01:46:36;;;;;;;4.40;4.05;;;;;;;;;;5234203;28;20045;-80
2022/05/24 01:51:47;;;;;;;15.65;5.82;;;;;;;;;;5241370;28;20045;-85
2022/05/24 01:54:17;;;;;;;5.40;3.40;;;;;;;;;;5244333;28;20021;-85
2022/05/24 01:56:51;;;;;;;8.95;4.22;;;;;;;;;;5232210;28;20019;-85
2022/05/24 01:59:22;;;;;;;6.68;4.60;;;;;;;;;;5242515;28;20024;-85
2022/05/24 02:01:54;;;;;;;9.65;4.85;;;;;;;;;;5242530;28;20021;-85
2022/05/24 02:04:25;;;;;;;7.28;4.13;;;;;;;;;;5242056;28;20024;-85
2022/05/24 02:06:59;;;;;;;5.85;4.72;;;;;;;;;;5241698;28;20024;-85
2022/05/24 02:09:29;;;;;;;8.52;4.80;;;;;;;;;;5241799;28;20008;-85
2022/05/24 02:12:02;;;;;;;9.50;5.85;;;;;;;;;;5243408;28;20021;-85
2022/05/24 02:14:34;;;;;;;5.85;3.75;;;;;;;;;;5241176;28;20028;-85
2022/05/24 02:17:07;;;;;;;4.25;4.05;;;;;;;;;;5239572;28;20041;-85
2022/05/24 02:19:39;;;;;;;5.55;4.55;;;;;;;;;;5240884;28;20025;-85
2022/05/24 02:22:14;;;;;;;10.50;4.90;;;;;;;;;;5240044;28;20021;-85
2022/05/24 02:24:44;;;;;;;7.53;5.72;;;;;;;;;;5237913;28;20005;-85
2022/05/24 02:27:14;;;;;;;9.45;5.03;;;;;;;;;;5235556;28;20044;-85
2022/05/24 02:29:44;;;;;;;6.43;5.80;;;;;;;;;;5237390;28;20020;-85
2022/05/24 02:32:15;;;;;;;4.63;4.32;;;;;;;;;;5238267;28;20324;-85
2022/05/24 02:34:45;;;;;;;6.75;4.05;;;;;;;;;;5239340;28;20009;-84
2022/05/24 02:37:15;;;;;;;4.13;3.78;;;;;;;;;;5242151;28;20013;-85
2022/05/24 02:42:34;;;;;;;6.10;3.88;;;;;;;;;;5240763;28;20466;-85
2022/05/24 02:45:05;;;;;;;5.82;4.15;;;;;;;;;;5237810;28;20013;-85
2022/05/24 02:47:35;;;;;;;7.15;4.28;;;;;;;;;;5239391;28;20040;-85
2022/05/24 02:50:09;;;;;;;6.63;4.93;;;;;;;;;;5238613;28;20422;-85
2022/05/24 02:52:40;;;;;;;4.75;4.55;;;;;;;;;;5237831;28;20028;-84
2022/05/24 02:55:11;;;;;;;3.60;3.30;;;;;;;;;;5238602;28;20023;-85
2022/05/24 02:57:42;;;;;;;4.85;3.75;;;;;;;;;;5236309;28;20017;-84
2022/05/24 03:00:17;;;;;;;5.93;4.15;;;;;;;;;;5236980;28;20017;-84
2022/05/24 03:02:47;;;;;;;4.45;4.05;;;;;;;;;;5235971;28;20371;-85
2022/05/24 03:05:18;;;;;;;6.03;4.53;;;;;;;;;;5236769;28;20047;-85
2022/05/24 03:10:38;;;;;;;10.23;4.57;;;;;;;;;;5237494;28;20028;-85
2022/05/24 03:15:57;;;;;;;3.58;3.38;;;;;;;;;;5236515;28;20509;-85
2022/05/24 03:18:27;;;;;;;12.90;5.37;;;;;;;;;;5236903;28;20061;-84
2022/05/24 03:20:57;;;;;;;4.93;4.57;;;;;;;;;;5235650;28;20271;-85
2022/05/24 03:23:28;;;;;;;4.53;3.77;;;;;;;;;;5233836;28;20263;-85
2022/05/24 03:25:58;;;;;;;4.27;3.87;;;;;;;;;;5233864;28;20268;-84
2022/05/24 03:28:29;;;;;;;4.38;4.00;;;;;;;;;;5233783;28;20641;-85
2022/05/24 03:31:02;;;;;;;5.85;4.18;;;;;;;;;;5231678;28;20017;-85
2022/05/24 03:33:32;;;;;;;4.07;3.38;;;;;;;;;;5231522;28;20017;-84
2022/05/24 03:36:02;;;;;;;23.58;4.85;;;;;;;;;;5230657;28;20017;-85
2022/05/24 03:38:33;;;;;;;3.75;3.53;;;;;;;;;;5229211;28;20021;-85
2022/05/24 03:41:03;;;;;;;6.63;3.85;;;;;;;;;;5241262;28;20084;-84
2022/05/24 03:43:33;;;;;;;6.57;5.50;;;;;;;;;;5227489;28;20390;-85
2022/05/24 03:46:08;;;;;;;8.05;4.03;;;;;;;;;;5235610;28;20097;-84
2022/05/24 03:48:38;;;;;;;9.50;3.53;;;;;;;;;;5237567;28;20041;-84
2022/05/24 03:51:09;;;;;;;7.80;4.15;;;;;;;;;;5241467;28;20055;-84
2022/05/24 03:53:39;;;;;;;3.28;3.17;;;;;;;;;;5240344;28;20024;-84
2022/05/24 03:56:09;;;;;;;3.50;3.20;;;;;;;;;;5240351;28;20064;-84
2022/05/24 03:58:40;;;;;;;5.05;3.58;;;;;;;;;;5239800;28;20024;-84
2022/05/24 04:01:10;;;;;;;4.50;3.58;;;;;;;;;;5239248;28;20025;-84
2022/05/24 04:03:41;;;;;;;5.05;3.88;;;;;;;;;;5240051;28;20043;-84
2022/05/24 04:06:11;;;;;;;3.17;2.95;;;;;;;;;;5238600;28;20017;-84
2022/05/24 04:08:41;;;;;;;4.47;3.87;;;;;;;;;;5240607;28;20052;-84
2022/05/24 04:11:12;;;;;;;6.75;4.10;;;;;;;;;;5240198;28;20263;-84
2022/05/24 04:13:42;;;;;;;3.67;3.38;;;;;;;;;;5240022;28;20025;-84
2022/05/24 04:16:13;;;;;;;3.95;3.75;;;;;;;;;;5241107;28;20020;-84
2022/05/24 04:18:43;;;;;;;7.57;3.42;;;;;;;;;;5239536;28;20093;-84
2022/05/24 04:21:14;;;;;;;3.80;3.50;;;;;;;;;;5242208;28;20051;-84
2022/05/24 04:23:44;;;;;;;8.95;4.75;;;;;;;;;;5243865;28;20410;-84
2022/05/24 04:26:15;;;;;;;12.32;3.95;;;;;;;;;;5244467;28;20024;-84
2022/05/24 04:28:45;;;;;;;4.72;3.00;;;;;;;;;;5241517;28;20017;-85
2022/05/24 04:31:15;;;;;;;4.15;3.72;;;;;;;;;;5240216;28;20072;-84
2022/05/24 04:33:46;;;;;;;4.57;3.38;;;;;;;;;;5239623;28;20025;-85
2022/05/24 04:36:16;;;;;;;4.25;3.95;;;;;;;;;;5239834;28;20051;-84
2022/05/24 04:38:46;;;;;;;3.55;3.33;;;;;;;;;;5239368;28;20021;-84
2022/05/24 04:44:05;;;;;;;5.93;4.20;;;;;;;;;;5236986;28;20045;-84
2022/05/24 04:49:25;;;;;;;4.22;3.83;;;;;;;;;;5237423;28;20024;-84
2022/05/24 04:51:55;;;;;;;3.00;2.83;;;;;;;;;;5236572;28;20163;-84
2022/05/24 04:54:26;;;;;;;12.35;3.28;;;;;;;;;;5235448;28;20271;-84
2022/05/24 04:56:56;;;;;;;10.48;3.90;;;;;;;;;;5236165;28;20053;-85
2022/05/24 04:59:26;;;;;;;11.17;5.17;;;;;;;;;;5236886;28;20047;-85
2022/05/24 05:01:56;;;;;;;4.33;3.93;;;;;;;;;;5237207;28;20319;-84
2022/05/24 05:04:27;;;;;;;3.53;3.28;;;;;;;;;;5236719;28;20346;-84
2022/05/24 05:06:57;;;;;;;4.10;2.65;;;;;;;;;;5236094;28;20049;-84
2022/05/24 05:09:34;;;;;;;3.20;2.75;;;;;;;;;;5235984;28;20024;-84
2022/05/24 05:12:05;;;;;;;3.40;3.20;;;;;;;;;;5235224;28;20054;-85
2022/05/24 05:14:36;;;;;;;7.75;4.88;;;;;;;;;;5234369;28;20029;-84
2022/05/24 05:17:07;;;;;;;14.23;4.65;;;;;;;;;;5236626;28;20023;-84
2022/05/24 05:19:37;;;;;;;2.92;2.83;;;;;;;;;;5235460;28;20017;-84
2022/05/24 05:22:08;;;;;;;3.85;3.60;;;;;;;;;;5234894;28;20024;-84
2022/05/24 05:24:38;;;;;;;5.45;3.90;;;;;;;;;;5234300;28;20009;-84
2022/05/24 05:27:09;;;;;;;7.10;3.58;;;;;;;;;;5232833;28;20060;-84
2022/05/24 05:32:30;;;;;;;9.93;3.53;;;;;;;;;;5233791;28;20044;-84
2022/05/24 05:35:00;;;;;;;3.75;3.30;;;;;;;;;;5231098;28;20081;-84
2022/05/24 05:37:31;;;;;;;3.65;3.35;;;;;;;;;;5231774;28;20028;-84
2022/05/24 05:40:03;;;;;;;5.93;3.97;;;;;;;;;;5233199;28;20108;-84
2022/05/24 05:42:35;;;;;;;10.60;4.10;;;;;;;;;;5236408;28;20044;-85
2022/05/24 05:45:06;;;;;;;6.85;4.88;;;;;;;;;;5244866;28;20048;-83
2022/05/24 05:47:36;;;;;;;3.63;3.33;;;;;;;;;;5243658;28;20067;-85
2022/05/24 05:50:07;;;;;;;4.00;3.78;;;;;;;;;;5242780;28;20037;-85
2022/05/24 05:52:37;;;;;;;4.90;4.53;;;;;;;;;;5239049;28;20017;-85
2022/05/24 05:55:08;;;;;;;4.22;3.83;;;;;;;;;;5237900;28;20483;-84
2022/05/24 05:57:38;;;;;;;9.40;4.38;;;;;;;;;;5235606;28;20048;-83
2022/05/24 06:00:09;;;;;;;5.38;4.20;;;;;;;;;;5238218;28;20081;-83
2022/05/24 06:02:39;;;;;;;4.70;4.40;;;;;;;;;;5234997;28;20107;-83
2022/05/24 06:05:10;;;;;;;8.27;4.60;;;;;;;;;;5235180;28;20074;-83
2022/05/24 06:07:40;;;;;;;8.77;4.90;;;;;;;;;;5234949;28;20291;-83
2022/05/24 06:10:11;;;;;;;9.45;4.63;;;;;;;;;;5233075;28;20028;-83
2022/05/24 06:12:42;;;;;;;5.97;5.38;;;;;;;;;;5234276;28;20021;-83
2022/05/24 06:15:12;;;;;;;7.63;3.45;;;;;;;;;;5234411;28;20024;-83
2022/05/24 06:17:46;;;;;;;9.77;4.95;;;;;;;;;;5236516;28;20052;-83
2022/05/24 06:20:18;;;;;;;9.95;5.53;;;;;;;;;;5233764;28;20025;-83
2022/05/24 06:22:49;;;;;;;3.67;3.40;;;;;;;;;;5236229;28;20074;-84
2022/05/24 06:25:20;;;;;;;3.78;3.30;;;;;;;;;;5234862;28;20013;-84
2022/05/24 06:27:51;;;;;;;11.23;4.15;;;;;;;;;;5234703;28;20024;-84
2022/05/24 06:30:23;;;;;;;6.22;3.25;;;;;;;;;;5232633;28;20015;-84
2022/05/24 06:32:53;;;;;;;11.70;4.22;;;;;;;;;;5233563;28;20021;-84
2022/05/24 06:35:24;;;;;;;6.55;4.03;;;;;;;;;;5239168;28;20043;-85
2022/05/24 06:37:54;;;;;;;7.72;4.30;;;;;;;;;;5237119;28;20028;-84
2022/05/24 06:40:25;;;;;;;3.03;2.85;;;;;;;;;;5239153;28;20077;-84
2022/05/24 06:42:57;;;;;;;5.63;4.40;;;;;;;;;;5238850;28;20045;-81
2022/05/24 06:45:27;;;;;;;4.47;4.13;;;;;;;;;;5239527;28;20040;-84
2022/05/24 06:47:57;;;;;;;4.93;2.80;;;;;;;;;;5238168;28;20020;-83
2022/05/24 06:50:28;;;;;;;7.28;3.97;;;;;;;;;;5240180;28;20025;-83
2022/05/24 06:52:58;;;;;;;9.85;3.90;;;;;;;;;;5237972;28;20025;-83
2022/05/24 06:55:28;;;;;;;6.35;3.88;;;;;;;;;;5238659;28;20021;-83
2022/05/24 06:57:59;;;;;;;7.17;2.67;;;;;;;;;;5238724;28;20029;-83
2022/05/24 07:03:18;;;;;;;10.77;3.03;;;;;;;;;;5239992;28;20406;-82
2022/05/24 07:05:48;;;;;;;3.83;3.45;;;;;;;;;;5238862;28;20259;-83
2022/05/24 07:08:19;;;;;;;3.87;3.50;;;;;;;;;;5238892;28;20042;-83
2022/05/24 07:10:49;;;;;;;3.95;1.88;;;;;;;;;;5239524;28;20259;-83
2022/05/24 07:13:19;;;;;;;12.27;3.33;;;;;;;;;;5239191;28;20033;-83
2022/05/24 07:15:50;;;;;;;4.40;4.10;;;;;;;;;;5236048;28;20029;-82
2022/05/24 07:18:20;;;;;;;4.07;2.25;;;;;;;;;;5239820;28;20046;-82
2022/05/24 07:20:50;;;;;;;2.83;2.72;;;;;;;;;;5239085;28;20499;-83
2022/05/24 07:23:23;;;;;;;2.10;1.83;;;;;;;;;;5241678;28;20032;-83
2022/05/24 07:25:54;;;;;;;2.22;2.10;;;;;;;;;;5242950;28;20017;-83
2022/05/24 07:28:25;;;;;;;3.67;2.20;;;;;;;;;;5240490;28;20041;-83
2022/05/24 07:30:55;;;;;;;5.40;2.63;;;;;;;;;;5241704;28;20032;-83
2022/05/24 07:33:26;;;;;;;5.13;2.00;;;;;;;;;;5240284;28;20267;-84
2022/05/24 07:35:56;;;;;;;4.00;1.95;;;;;;;;;;5241235;28;20258;-83
2022/05/24 07:38:26;;;;;;;3.30;1.65;;;;;;;;;;5241816;28;20076;-83
2022/05/24 07:46:35;;;;;;;5.22;3.00;;;;;;;;;;5246824;28;20347;-84
2022/05/24 07:49:05;;;;;;;2.67;2.10;;;;;;;;;;5245905;28;20013;-84
2022/05/24 07:51:36;;;;;;;1.88;1.77;;;;;;;;;;5232996;22;20683;-61
2022/05/24 07:54:06;;;;;;;2.67;1.85;;;;;;;;;;5175946;28;20021;-63
2022/05/24 07:56:36;;;;;;;6.90;2.42;;;;;;;;;;5191228;28;20021;-62
2022/05/24 07:59:07;;;;;;;1.52;1.50;;;;;;;;;;5191301;28;20021;-61
2022/05/24 08:01:37;;;;;;;1.70;1.60;;;;;;;;;;5191214;28;20128;-62
2022/05/24 08:04:09;;;;;;;2.35;1.95;;;;;;;;;;5190761;28;20021;-61
2022/05/24 08:06:39;;;;;;;2.85;2.65;;;;;;;;;;5190891;28;20025;-60
2022/05/24 08:09:10;;;;;;;4.50;1.92;;;;;;;;;;5191247;28;20014;-61
2022/05/24 08:11:40;;;;;;;2.80;2.25;;;;;;;;;;5191075;28;20057;-62
2022/05/24 08:14:10;;;;;;;3.03;2.45;;;;;;;;;;5190380;28;20032;-62
2022/05/24 08:16:41;;;;;;;1.77;1.63;;;;;;;;;;5209176;28;20020;-62
2022/05/24 08:19:12;;;;;;;1.77;1.70;;;;;;;;;;5190507;28;20017;-62
2022/05/24 08:21:42;;;;;;;2.60;1.90;;;;;;;;;;5208533;28;20056;-61
2022/05/24 08:24:12;;;;;;;6.63;2.03;;;;;;;;;;5208162;28;20056;-61
2022/05/24 08:26:42;;;;;;;2.25;1.85;;;;;;;;;;5190872;28;20025;-61
2022/05/24 08:29:16;;;;;;;1.38;1.27;;;;;;;;;;5208281;28;20052;-62
2022/05/24 08:31:46;;;;;;;2.97;2.33;;;;;;;;;;5190592;28;20033;-62
2022/05/24 08:34:16;;;;;;;2.08;1.98;;;;;;;;;;5190296;28;20095;-63
2022/05/24 08:36:47;;;;;;;4.32;1.58;;;;;;;;;;5190846;28;20079;-63
2022/05/24 08:39:17;;;;;;;1.95;1.83;;;;;;;;;;5190561;28;20087;-60
2022/05/24 08:41:56;;;;;;;2.45;2.30;;;;;;;;;;5208400;28;20045;-60
2022/05/24 08:50:17;;;;;;;4.00;2.10;;;;;;;;;;5208115;28;20068;-61
2022/05/24 08:52:47;;;;;;;2.83;2.67;;;;;;;;;;5190390;28;20052;-62
2022/05/24 08:55:18;;;;;;;1.50;1.40;;;;;;;;;;5189832;28;20029;-63
2022/05/24 08:57:58;;;;;;;1.73;1.63;;;;;;;;;;5190232;28;20017;-63
2022/05/24 09:00:35;;;;;;;1.42;1.42;;;;;;;;;;5190267;28;20032;-64
2022/05/24 09:03:06;;;;;;;2.67;2.25;;;;;;;;;;5207184;28;20023;-62
2022/05/24 09:05:38;;;;;;;2.88;2.63;;;;;;;;;;5207678;28;20041;-60
2022/05/24 09:08:29;;;;;;;1.00;1.00;;;;;;;;;;5189872;28;20048;-62
2022/05/24 09:11:15;;;;;;;2.70;2.15;;;;;;;;;;5189841;28;20398;-61
2022/05/24 09:13:46;;;;;;;5.57;1.95;;;;;;;;;;5189547;28;20013;-64
2022/05/24 09:16:17;;;;;;;1.63;1.23;;;;;;;;;;5207116;28;20025;-61
2022/05/24 09:18:50;;;;;;;2.05;1.98;;;;;;;;;;5190092;28;20104;-62
2022/05/24 09:21:22;;;;;;;4.53;1.85;;;;;;;;;;5189651;28;20025;-62
2022/05/24 09:23:57;;;;;;;2.72;2.60;;;;;;;;;;5189189;28;20450;-62
2022/05/24 09:26:29;;;;;;;1.85;1.85;;;;;;;;;;5189352;28;20022;-61
2022/05/24 09:29:12;;;;;;;2.88;1.92;;;;;;;;;;5189591;28;20079;-62
2022/05/24 09:31:43;;;;;;;6.30;2.00;;;;;;;;;;5189373;28;20109;-63
2022/05/24 09:34:19;;;;;;;1.58;1.58;;;;;;;;;;5206740;28;20104;-61
2022/05/24 09:36:57;;;;;;;2.65;2.10;;;;;;;;;;5189710;28;20508;-64
2022/05/24 09:39:27;;;;;;;3.70;1.58;;;;;;;;;;5189274;28;20017;-61
2022/05/24 09:41:59;;;;;;;7.63;2.10;;;;;;;;;;5189643;28;20048;-61
2022/05/24 09:44:42;;;;;;;1.35;1.35;;;;;;;;;;5189685;28;20029;-66
2022/05/24 09:47:20;;;;;;;3.75;2.22;;;;;;;;;;5207587;28;20045;-66
2022/05/24 09:49:50;;;;;;;1.50;1.45;;;;;;;;;;5190032;28;20485;-63
2022/05/24 09:52:21;;;;;;;6.82;1.92;;;;;;;;;;5190513;28;20029;-61
2022/05/24 09:54:53;;;;;;;1.30;1.30;;;;;;;;;;5188654;28;20108;-66
2022/05/24 09:57:25;;;;;;;1.80;1.75;;;;;;;;;;5189807;28;20120;-63
2022/05/24 09:59:59;;;;;;;1.30;1.20;;;;;;;;;;5188673;28;20037;-63
2022/05/24 10:02:31;;;;;;;1.67;1.67;;;;;;;;;;5189416;28;20512;-63
2022/05/24 10:05:02;;;;;;;1.23;1.23;;;;;;;;;;5207318;28;20420;-63
2022/05/24 10:07:34;;;;;;;1.40;1.30;;;;;;;;;;5188508;28;20021;-62
2022/05/24 10:10:13;;;;;;;3.88;1.75;;;;;;;;;;5188834;28;20167;-63
2022/05/24 10:12:49;;;;;;;2.17;2.08;;;;;;;;;;5189180;28;20120;-63
2022/05/24 10:15:39;;;;;;;1.50;1.50;;;;;;;;;;5188865;28;20064;-62
2022/05/24 10:18:19;;;;;;;2.53;1.85;;;;;;;;;;5189687;28;20033;-61
2022/05/24 10:20:49;;;;;;;;;;;;;;;;;;5189928;28;20053;-62
2022/05/24 10:23:52;;;;;;;5.45;1.75;;;;;;;;;;5189160;28;19909;-62
2022/05/24 10:26:39;;;;;;;8.02;2.03;;;;;;;;;;5136224;28;20401;-64
2022/05/24 10:29:12;;;;;;;1.83;1.73;;;;;;;;;;5188849;28;20053;-63
2022/05/24 10:31:46;;;;;;;2.15;1.95;;;;;;;;;;5206899;28;20108;-62
2022/05/24 10:40:23;;;;;;;1.38;1.38;;;;;;;;;;5206802;28;20028;-62
2022/05/24 10:43:12;;;;;;;1.73;1.63;;;;;;;;;;5188779;28;20032;-62
2022/05/24 10:45:51;;;;;;;3.60;1.65;;;;;;;;;;5188585;28;20112;-62
2022/05/24 10:48:43;;;;;;;2.13;1.67;;;;;;;;;;5187865;28;20017;-63
2022/05/24 10:51:16;;;;;;;1.58;1.20;;;;;;;;;;5187990;28;20033;-63
2022/05/24 10:53:47;;;;;;;1.25;1.25;;;;;;;;;;5187940;28;20055;-64
2022/05/24 10:56:20;;;;;;;1.00;1.00;;;;;;;;;;5187340;28;20045;-63
2022/05/24 10:58:51;;;;;;;1.10;1.10;;;;;;;;;;5188688;28;20384;-62
2022/05/24 11:01:27;;;;;;;1.60;1.60;;;;;;;;;;5188386;28;20021;-63
2022/05/24 11:04:00;;;;;;;2.40;2.20;;;;;;;;;;5187959;28;20060;-62
2022/05/24 11:06:39;;;;;;;3.03;2.20;;;;;;;;;;5188463;28;20393;-62
2022/05/24 11:09:18;;;;;;;1.08;1.08;;;;;;;;;;5188444;28;20025;-62
2022/05/24 11:11:57;;;;;;;1.50;1.50;;;;;;;;;;5188446;28;20018;-60
2022/05/24 11:14:28;;;;;;;2.38;2.00;;;;;;;;;;5188240;28;20060;-62
2022/05/24 11:16:59;;;;;;;1.98;1.77;;;;;;;;;;5188779;28;20454;-61
2022/05/24 11:19:38;;;;;;;7.32;1.95;;;;;;;;;;5191043;28;20041;-64
2022/05/24 11:22:08;;;;;;;;;;;;;;;;;;5192714;28;20024;-61
2022/05/24 11:24:42;;;;;;;3.33;3.23;;;;;;;;;;5191642;28;19913;-63
2022/05/24 11:27:14;;;;;;;4.43;4.25;;;;;;;;;;5191534;28;20076;-63
2022/05/24 11:29:50;;;;;;;3.28;3.17;;;;;;;;;;5192017;28;20017;-66
2022/05/24 11:32:30;;;;;;;4.03;3.50;;;;;;;;;;5192470;28;20029;-64
2022/05/24 11:35:10;;;;;;;3.60;2.92;;;;;;;;;;5191884;28;20108;-65
2022/05/24 11:37:42;;;;;;;5.43;2.38;;;;;;;;;;5192143;28;20460;-64
2022/05/24 11:40:48;;;;;;;3.10;2.90;;;;;;;;;;5209712;28;20026;-64
2022/05/24 11:43:36;;;;;;;2.17;2.08;;;;;;;;;;5106683;29;20088;-64
2022/05/24 11:46:08;;;;;;;2.03;1.92;;;;;;;;;;5187519;28;20030;-65
2022/05/24 11:48:38;;;;;;;2.08;1.98;;;;;;;;;;5190579;28;20026;-64
2022/05/24 11:51:27;;;;;;;5.15;2.95;;;;;;;;;;5191662;28;20501;-64
2022/05/24 11:53:58;;;;;;;2.50;2.40;;;;;;;;;;5191304;28;20017;-67
2022/05/24 11:56:29;;;;;;;6.35;3.10;;;;;;;;;;5191606;28;20028;-65
2022/05/24 11:59:00;;;;;;;2.70;2.50;;;;;;;;;;5192033;28;20029;-65
2022/05/24 12:01:32;;;;;;;2.53;2.38;;;;;;;;;;5191665;28;20481;-66
2022/05/24 12:10:34;;;;;;;3.00;2.90;;;;;;;;;;5195636;28;20068;-65
2022/05/24 12:13:05;;;;;;;3.08;2.90;;;;;;;;;;5191600;28;20026;-67
2022/05/24 12:15:40;;;;;;;2.60;2.50;;;;;;;;;;5191097;28;20025;-65
2022/05/24 12:18:11;;;;;;;8.70;2.58;;;;;;;;;;5191552;28;20017;-64
2022/05/24 12:20:42;;;;;;;2.88;2.78;;;;;;;;;;5191108;28;20028;-65
2022/05/24 12:23:15;;;;;;;2.28;2.25;;;;;;;;;;5191422;28;20481;-62
2022/05/24 12:25:54;;;;;;;2.78;2.58;;;;;;;;;;5190961;28;20024;-64
2022/05/24 12:28:28;;;;;;;2.90;2.80;;;;;;;;;;5191663;28;20056;-65
2022/05/24 12:30:59;;;;;;;2.45;2.25;;;;;;;;;;5208569;28;20117;-63
2022/05/24 12:33:41;;;;;;;2.90;2.80;;;;;;;;;;5190934;28;20017;-64
2022/05/24 12:36:22;;;;;;;5.75;3.15;;;;;;;;;;5190983;28;20052;-65
2022/05/24 12:38:59;;;;;;;1.95;1.90;;;;;;;;;;5191241;28;20022;-64
2022/05/24 12:41:32;;;;;;;2.20;2.10;;;;;;;;;;5191085;28;20087;-63
2022/05/24 12:44:02;;;;;;;1.83;1.73;;;;;;;;;;5190620;28;20021;-64
2022/05/24 12:46:34;;;;;;;2.28;1.75;;;;;;;;;;5191198;28;20390;-64
2022/05/24 12:49:15;;;;;;;1.70;1.60;;;;;;;;;;5190214;28;20017;-64
2022/05/24 12:51:45;;;;;;;2.45;2.35;;;;;;;;;;5189573;28;20037;-63
2022/05/24 12:54:17;;;;;;;3.63;2.30;;;;;;;;;;5190565;28;20655;-64
2022/05/24 12:57:11;;;;;;;2.83;1.63;;;;;;;;;;5190831;28;20029;-63
2022/05/24 12:59:42;;;;;;;2.47;1.88;;;;;;;;;;5190534;28;20397;-65
2022/05/24 13:02:23;;;;;;;1.73;1.63;;;;;;;;;;5190747;28;20497;-64
2022/05/24 13:04:55;;;;;;;1.80;1.70;;;;;;;;;;5207604;28;20095;-63
2022/05/24 13:07:28;;;;;;;1.95;1.30;;;;;;;;;;5190379;28;20017;-63
2022/05/24 13:09:58;;;;;;;1.45;1.45;;;;;;;;;;5207853;28;20052;-63
2022/05/24 13:12:29;;;;;;;3.45;1.50;;;;;;;;;;5190116;28;20021;-63
2022/05/24 13:15:00;;;;;;;1.60;1.50;;;;;;;;;;5189851;28;20116;-62
2022/05/24 13:17:38;;;;;;;1.55;1.52;;;;;;;;;;5189906;28;20032;-63
2022/05/24 13:20:10;;;;;;;1.30;1.30;;;;;;;;;;5190031;28;20413;-63
2022/05/24 13:22:46;;;;;;;1.33;1.25;;;;;;;;;;5208059;28;20014;-64
2022/05/24 13:25:18;;;;;;;1.55;1.48;;;;;;;;;;5189686;28;20080;-63
2022/05/24 13:27:51;;;;;;;2.05;1.95;;;;;;;;;;5189666;28;20104;-64
2022/05/24 13:33:35;;;;;;;2.28;1.90;;;;;;;;;;5207028;28;20056;-63
2022/05/24 13:36:21;;;;;;;1.25;1.25;;;;;;;;;;5189193;28;20176;-64
2022/05/24 13:39:03;;;;;;;2.50;2.35;;;;;;;;;;5189004;28;20060;-64
2022/05/24 13:41:37;;;;;;;2.70;2.50;;;;;;;;;;5187980;28;20128;-63
2022/05/24 13:44:26;;;;;;;2.50;1.77;;;;;;;;;;5188338;28;20082;-62
2022/05/24 13:46:56;;;;;;;3.75;1.30;;;;;;;;;;5188630;28;20048;-64
2022/05/24 13:49:39;;;;;;;1.60;1.50;;;;;;;;;;5188476;28;20033;-64
2022/05/24 13:52:28;;;;;;;1.20;1.20;;;;;;;;;;5188427;28;20425;-70
2022/05/24 13:55:08;;;;;;;1.88;1.77;;;;;;;;;;5188230;28;20100;-64
2022/05/24 13:57:47;;;;;;;1.33;1.23;;;;;;;;;;5205714;28;20036;-63
2022/05/24 14:00:24;;;;;;;2.85;2.20;;;;;;;;;;5189898;28;20013;-61
2022/05/24 14:03:09;;;;;;;1.63;1.52;;;;;;;;;;5187788;28;20040;-62
2022/05/24 14:05:40;;;;;;;1.38;1.38;;;;;;;;;;5188064;28;20061;-62
2022/05/24 14:08:10;;;;;;;1.70;1.65;;;;;;;;;;5187968;28;20132;-60
2022/05/24 14:10:41;;;;;;;2.78;2.58;;;;;;;;;;5188103;28;20105;-61
2022/05/24 14:13:11;;;;;;;2.42;2.17;;;;;;;;;;5188110;28;20095;-62
2022/05/24 14:15:41;;;;;;;2.03;1.92;;;;;;;;;;5188065;28;20017;-62
2022/05/24 14:18:12;;;;;;;1.13;1.13;;;;;;;;;;5188195;28;20021;-62
2022/05/24 14:20:43;;;;;;;1.63;1.63;;;;;;;;;;5205534;28;20025;-61
2022/05/24 14:23:16;;;;;;;1.77;1.70;;;;;;;;;;5188261;28;20466;-63
2022/05/24 14:25:47;;;;;;;1.83;1.73;;;;;;;;;;5187727;28;20018;-63
2022/05/24 14:28:17;;;;;;;3.90;1.83;;;;;;;;;;5187767;28;20028;-61
2022/05/24 14:30:48;;;;;;;1.45;1.40;;;;;;;;;;5187809;28;20464;-63
2022/05/24 14:33:20;;;;;;;5.90;1.95;;;;;;;;;;5187532;28;20025;-63
2022/05/24 14:35:50;;;;;;;1.80;1.70;;;;;;;;;;5187765;28;20022;-63
2022/05/24 14:38:22;;;;;;;2.97;1.48;;;;;;;;;;5187966;28;20032;-64
2022/05/24 14:40:53;;;;;;;3.85;1.63;;;;;;;;;;5187706;28;20071;-63
2022/05/24 14:43:25;;;;;;;2.55;1.60;;;;;;;;;;5187742;28;20086;-64
2022/05/24 14:45:55;;;;;;;1.75;1.38;;;;;;;;;;5187430;28;20112;-64
2022/05/24 14:48:25;;;;;;;2.33;1.95;;;;;;;;;;5187540;28;20112;-64
2022/05/24 14:50:56;;;;;;;1.40;1.40;;;;;;;;;;5187675;28;20104;-64
2022/05/24 14:53:27;;;;;;;1.95;1.85;;;;;;;;;;5186958;28;20482;-64
2022/05/24 14:55:57;;;;;;;4.63;2.28;;;;;;;;;;5187604;28;20028;-63
2022/05/24 14:58:27;;;;;;;1.58;1.52;;;;;;;;;;5187357;28;20034;-62
2022/05/24 15:00:58;;;;;;;1.05;1.05;;;;;;;;;;5187579;28;20056;-62
2022/05/24 15:03:28;;;;;;;1.23;1.23;;;;;;;;;;5187202;28;20017;-63
2022/05/24 15:05:58;;;;;;;1.15;1.15;;;;;;;;;;5187237;28;20018;-62
2022/05/24 15:16:55;;;;;;;1.42;1.42;;;;;;;;;;5205290;28;20445;-64
2022/05/24 15:19:25;;;;;;;2.72;2.25;;;;;;;;;;5187431;28;20018;-62
2022/05/24 15:21:57;;;;;;;2.90;1.48;;;;;;;;;;5187220;28;20052;-61
2022/05/24 15:24:40;;;;;;;1.83;1.63;;;;;;;;;;5186981;28;20469;-61
2022/05/24 15:27:10;;;;;;;1.88;1.77;;;;;;;;;;5198528;28;20032;-62
2022/05/24 15:29:41;;;;;;;2.78;2.58;;;;;;;;;;5176084;28;20397;-62
2022/05/24 15:32:13;;;;;;;1.33;1.25;;;;;;;;;;5205460;28;20461;-62
2022/05/24 15:34:43;;;;;;;1.77;1.67;;;;;;;;;;5204830;28;20386;-62
2022/05/24 15:37:13;;;;;;;1.35;1.33;;;;;;;;;;5204782;28;20013;-62
2022/05/24 15:39:44;;;;;;;1.42;1.42;;;;;;;;;;5184617;28;20026;-62
2022/05/24 15:42:14;;;;;;;1.27;1.27;;;;;;;;;;5186365;28;20277;-61
2022/05/24 15:44:44;;;;;;;1.65;1.55;;;;;;;;;;5187076;28;20025;-62
2022/05/24 15:47:16;;;;;;;1.75;1.65;;;;;;;;;;5180209;28;20018;-62
2022/05/24 15:49:47;;;;;;;1.40;1.30;;;;;;;;;;5183128;28;20022;-60
2022/05/24 15:52:17;;;;;;;3.30;1.42;;;;;;;;;;5186886;28;20083;-62
2022/05/24 15:54:47;;;;;;;1.45;1.45;;;;;;;;;;5186816;28;20648;-63
2022/05/24 15:57:18;;;;;;;1.80;1.70;;;;;;;;;;5202773;28;20056;-64
2022/05/24 15:59:48;;;;;;;1.40;1.30;;;;;;;;;;5186802;28;20152;-61
2022/05/24 16:02:19;;;;;;;1.20;1.20;;;;;;;;;;5186965;28;20014;-62
2022/05/24 16:10:28;;;;;;;0.90;0.90;;;;;;;;;;5209192;28;20028;-65
2022/05/24 16:12:59;;;;;;;1.48;1.05;;;;;;;;;;5208424;28;20017;-62
2022/05/24 16:15:30;;;;;;;2.15;1.95;;;;;;;;;;5206106;28;20057;-66
2022/05/24 16:18:05;;;;;;;0.98;0.98;;;;;;;;;;5190224;28;20107;-64
2022/05/24 16:20:36;;;;;;;1.40;1.35;;;;;;;;;;5190239;28;20022;-61
2022/05/24 16:23:07;;;;;;;1.90;1.80;;;;;;;;;;5189882;28;20561;-62